Map

Track Data

SID SEASON NUMBER BASIN SUBBASIN NAME ISO_TIME NATURE LAT LON WMO_WIND WMO_PRES WMO_AGENCY TRACK_TYPE DIST2LAND LANDFALL IFLAG USA_AGENCY USA_ATCF_ID USA_LAT USA_LON USA_RECORD USA_STATUS USA_WIND USA_PRES USA_SSHS USA_R34_NE USA_R34_SE USA_R34_SW USA_R34_NW USA_R50_NE USA_R50_SE USA_R50_SW USA_R50_NW USA_R64_NE USA_R64_SE USA_R64_SW USA_R64_NW USA_POCI USA_ROCI USA_RMW USA_EYE TOKYO_LAT TOKYO_LON TOKYO_GRADE TOKYO_WIND TOKYO_PRES TOKYO_R50_DIR TOKYO_R50_LONG TOKYO_R50_SHORT TOKYO_R30_DIR TOKYO_R30_LONG TOKYO_R30_SHORT TOKYO_LAND CMA_LAT CMA_LON CMA_CAT CMA_WIND CMA_PRES HKO_LAT HKO_LON HKO_CAT HKO_WIND HKO_PRES NEWDELHI_LAT NEWDELHI_LON NEWDELHI_GRADE NEWDELHI_WIND NEWDELHI_PRES NEWDELHI_CI NEWDELHI_DP NEWDELHI_POCI REUNION_LAT REUNION_LON REUNION_TYPE REUNION_WIND REUNION_PRES REUNION_TNUM REUNION_CI REUNION_RMW REUNION_R34_NE REUNION_R34_SE REUNION_R34_SW REUNION_R34_NW REUNION_R50_NE REUNION_R50_SE REUNION_R50_SW REUNION_R50_NW REUNION_R64_NE REUNION_R64_SE REUNION_R64_SW REUNION_R64_NW BOM_LAT BOM_LON BOM_TYPE BOM_WIND BOM_PRES BOM_TNUM BOM_CI BOM_RMW BOM_R34_NE BOM_R34_SE BOM_R34_SW BOM_R34_NW BOM_R50_NE BOM_R50_SE BOM_R50_SW BOM_R50_NW BOM_R64_NE BOM_R64_SE BOM_R64_SW BOM_R64_NW BOM_ROCI BOM_POCI BOM_EYE BOM_POS_METHOD BOM_PRES_METHOD NADI_LAT NADI_LON NADI_CAT NADI_WIND NADI_PRES WELLINGTON_LAT WELLINGTON_LON WELLINGTON_WIND WELLINGTON_PRES DS824_LAT DS824_LON DS824_STAGE DS824_WIND DS824_PRES TD9636_LAT TD9636_LON TD9636_STAGE TD9636_WIND TD9636_PRES TD9635_LAT TD9635_LON TD9635_WIND TD9635_PRES TD9635_ROCI NEUMANN_LAT NEUMANN_LON NEUMANN_CLASS NEUMANN_WIND NEUMANN_PRES MLC_LAT MLC_LON MLC_CLASS MLC_WIND MLC_PRES USA_GUST BOM_GUST BOM_GUST_PER REUNION_GUST REUNION_GUST_PER USA_SEAHGT USA_SEARAD_NE USA_SEARAD_SE USA_SEARAD_SW USA_SEARAD_NW STORM_SPEED STORM_DIR
1874011S15064 1874 2 SI MM NOT_NAMED 1874-01-11 06:00:00 NR -14.8000 63.5000 main 854 792 __________O___ -1 -14.8000 63.5000 7 12 206
1874011S15064 1874 2 SI MM NOT_NAMED 1874-01-11 09:00:00 NR -15.3394 63.2258 main 792 731 __________P___ -1 -15.3394 63.2258 7 12 206
1874011S15064 1874 2 SI MM NOT_NAMED 1874-01-11 12:00:00 NR -15.8828 62.9507 main 731 670 __________P___ -1 -15.8828 62.9507 7 12 206
1874011S15064 1874 2 SI MM NOT_NAMED 1874-01-11 15:00:00 NR -16.4349 62.6753 main 670 604 __________P___ -1 -16.4349 62.6753 7 12 205
1874011S15064 1874 2 SI MM NOT_NAMED 1874-01-11 18:00:00 NR -17.0000 62.4000 main 604 546 __________O___ -1 -17.0000 62.4000 7 13 205
1874011S15064 1874 2 SI MM NOT_NAMED 1874-01-11 21:00:00 NR -17.5784 62.1267 main 540 494 __________P___ -1 -17.5784 62.1267 7 13 204
1874011S15064 1874 2 SI MM NOT_NAMED 1874-01-12 00:00:00 NR -18.1524 61.8627 main 489 436 __________P___ -1 -18.1524 61.8627 7 12 203
1874011S15064 1874 2 SI MM NOT_NAMED 1874-01-12 03:00:00 NR -18.7003 61.6174 main 436 396 __________P___ -1 -18.7003 61.6174 7 11 203
1874011S15064 1874 2 SI MM NOT_NAMED 1874-01-12 06:00:00 NR -19.2000 61.4000 main 396 363 __________O___ -1 -19.2000 61.4000 7 10 202
1874011S15064 1874 2 SI MM NOT_NAMED 1874-01-12 09:00:00 NR -19.6291 61.2244 main 363 346 __________P___ -1 -19.6291 61.2244 7 9 201
1874011S15064 1874 2 SI MM NOT_NAMED 1874-01-12 12:00:00 NR -20.0096 61.0764 main 346 323 __________P___ -1 -20.0096 61.0764 7 8 200
1874011S15064 1874 2 SI MM NOT_NAMED 1874-01-12 15:00:00 NR -20.3604 60.9402 main 323 314 __________P___ -1 -20.3604 60.9402 7 7 200
1874011S15064 1874 2 SI MM NOT_NAMED 1874-01-12 18:00:00 NR -20.7000 60.8000 main 315 301 __________O___ -1 -20.7000 60.8000 7 7 204
1874011S15064 1874 2 SI MM NOT_NAMED 1874-01-12 21:00:00 NR -21.0410 60.6199 main 301 296 __________P___ -1 -21.0410 60.6199 7 8 207
1874011S15064 1874 2 SI MM NOT_NAMED 1874-01-13 00:00:00 NR -21.3776 60.4349 main 296 292 __________P___ -1 -21.3776 60.4349 7 8 206
1874011S15064 1874 2 SI MM NOT_NAMED 1874-01-13 03:00:00 NR -21.7254 60.2574 main 301 291 __________P___ -1 -21.7254 60.2574 7 8 203
1874011S15064 1874 2 SI MM NOT_NAMED 1874-01-13 06:00:00 NR -22.1000 60.1000 main 306 306 __________O___ -1 -22.1000 60.1000 7 8 198
1874011S15064 1874 2 SI MM NOT_NAMED 1874-01-13 09:00:00 NR -22.5211 59.9820 main 326 326 __________P___ -1 -22.5211 59.9820 7 9 193
1874011S15064 1874 2 SI MM NOT_NAMED 1874-01-13 12:00:00 NR -22.9699 59.8843 main 360 360 __________P___ -1 -22.9699 59.8843 7 9 191
1874011S15064 1874 2 SI MM NOT_NAMED 1874-01-13 15:00:00 NR -23.4337 59.7945 main 389 389 __________P___ -1 -23.4337 59.7945 7 10 190
1874011S15064 1874 2 SI MM NOT_NAMED 1874-01-13 18:00:00 NR -23.9000 59.7000 main 432 432 __________O___ -1 -23.9000 59.7000 7 9 192
1874011S15064 1874 2 SI MM NOT_NAMED 1874-01-13 21:00:00 NR -24.3216 59.5818 main 467 467 __________P___ -1 -24.3216 59.5818 7 9 195
1874011S15064 1874 2 SI MM NOT_NAMED 1874-01-14 00:00:00 NR -24.7476 59.4569 main 504 504 __________P___ -1 -24.7476 59.4569 7 9 195
1874011S15064 1874 2 SI MM NOT_NAMED 1874-01-14 03:00:00 NR -25.1997 59.3286 main 550 550 __________P___ -1 -25.1997 59.3286 7 10 194
1874011S15064 1874 2 SI MM NOT_NAMED 1874-01-14 06:00:00 NR -25.7000 59.2000 main 601 601 __________O___ -1 -25.7000 59.2000 7 11 193
1874011S15064 1874 2 SI MM NOT_NAMED 1874-01-14 09:00:00 NR -26.2586 59.0631 main 651 646 __________P___ -1 -26.2586 59.0631 7 12 192
1874011S15064 1874 2 SI MM NOT_NAMED 1874-01-14 12:00:00 NR -26.8677 58.9279 main 699 699 __________P___ -1 -26.8677 58.9279 7 13 190
1874011S15064 1874 2 SI MM NOT_NAMED 1874-01-14 15:00:00 NR -27.5180 58.8038 main 754 754 __________P___ -1 -27.5180 58.8038 7 14 189
1874011S15064 1874 2 SI MM NOT_NAMED 1874-01-14 18:00:00 NR -28.2000 58.7000 main 821 821 __________O___ -1 -28.2000 58.7000 7 14 187
1874011S15064 1874 2 SI MM NOT_NAMED 1874-01-14 21:00:00 NR -28.9286 58.6122 main 890 890 __________P___ -1 -28.9286 58.6122 7 15 185
1874011S15064 1874 2 SI MM NOT_NAMED 1874-01-15 00:00:00 NR -29.6799 58.5478 main 971 971 __________P___ -1 -29.6799 58.5478 7 15 184
1874011S15064 1874 2 SI MM NOT_NAMED 1874-01-15 03:00:00 NR -30.4162 58.5094 main 1046 1046 __________P___ -1 -30.4162 58.5093 7 14 181
1874011S15064 1874 2 SI MM NOT_NAMED 1874-01-15 06:00:00 NR -31.1000 58.5000 main 1121 1121 __________O___ -1 -31.1000 58.5000 7 13 0
1874011S15064 1874 2 SI MM NOT_NAMED 1874-01-15 09:00:00 NR -31.6824 58.5127 main 1185 1185 __________P___ -1 -31.6824 58.5127 7 11 178
1874011S15064 1874 2 SI MM NOT_NAMED 1874-01-15 12:00:00 NR -32.2098 58.5547 main 1242 1242 __________P___ -1 -32.2098 58.5547 7 10 175
1874011S15064 1874 2 SI MM NOT_NAMED 1874-01-15 15:00:00 NR -32.7074 58.6193 main 1296 1296 __________P___ -1 -32.7074 58.6193 7 10 173
1874011S15064 1874 2 SI MM NOT_NAMED 1874-01-15 18:00:00 NR -33.2000 58.7000 main 1352 1352 __________O___ -1 -33.2000 58.7000 7 10 172
1874011S15064 1874 2 SI MM NOT_NAMED 1874-01-15 21:00:00 NR -33.7076 58.7908 main 1408 1408 __________P___ -1 -33.7076 58.7908 7 10 171
1874011S15064 1874 2 SI MM NOT_NAMED 1874-01-16 00:00:00 NR -34.2302 58.8890 main 1465 1465 __________P___ -1 -34.2302 58.8890 7 11 171
1874011S15064 1874 2 SI MM NOT_NAMED 1874-01-16 03:00:00 NR -34.7627 58.9928 main 1532 1532 __________P___ -1 -34.7627 58.9928 7 11 171
1874011S15064 1874 2 SI MM NOT_NAMED 1874-01-16 06:00:00 NR -35.3000 59.1000 main 1588 __________O___ -1 -35.3000 59.1000 7 11 171

About IBTrACS Database

This database is a web-friendly format of International Best Track Archive for Climate Stewardship (IBTrACS), a global best track data archive curated by NOAA dating back to 1842.

Updated: 2021-10-25